createdAt,value
2019-04-10T00:00:55.642Z,99.90
2019-04-10T00:03:32.427Z,99.90
2019-04-10T00:05:54.999Z,99.90
2019-04-10T00:08:23.771Z,99.90
2019-04-10T00:10:54.326Z,99.90
2019-04-10T00:13:23.388Z,99.90
2019-04-10T00:15:52.897Z,99.90
2019-04-10T00:18:22.134Z,99.90
2019-04-10T00:20:51.335Z,99.90
2019-04-10T00:23:20.098Z,99.90
2019-04-10T00:25:48.869Z,99.90
2019-04-10T00:28:17.801Z,99.90
2019-04-10T00:30:46.565Z,99.90
2019-04-10T00:33:16.517Z,99.90
2019-04-10T00:35:45.730Z,99.90
2019-04-10T00:38:15.674Z,99.90
2019-04-10T00:40:45.585Z,99.90
2019-04-10T00:43:14.925Z,99.90
2019-04-10T00:45:44.040Z,99.90
2019-04-10T00:48:12.978Z,99.90
2019-04-10T00:50:42.522Z,99.90
2019-04-10T00:53:11.394Z,99.90
2019-04-10T00:55:40.174Z,99.90
2019-04-10T00:58:09.912Z,99.90
2019-04-10T01:00:39.283Z,99.90
2019-04-10T01:03:08.077Z,99.90
2019-04-10T01:05:37.723Z,99.90
2019-04-10T01:08:06.696Z,99.90
2019-04-10T01:10:36.613Z,99.90
2019-04-10T01:13:05.635Z,99.90
2019-04-10T01:15:34.584Z,99.90
2019-04-10T01:18:04.545Z,99.90
2019-04-10T01:20:33.425Z,99.90
2019-04-10T01:23:02.215Z,99.90
2019-04-10T01:25:30.970Z,99.90
2019-04-10T01:28:00.551Z,99.90
2019-04-10T01:30:30.515Z,99.90
2019-04-10T01:33:00.587Z,99.90
2019-04-10T01:35:29.955Z,99.90
2019-04-10T01:38:02.383Z,99.90
2019-04-10T01:40:30.913Z,99.90
2019-04-10T01:43:06.936Z,99.90
2019-04-10T01:45:30.413Z,99.90
2019-04-10T01:47:59.514Z,99.90
2019-04-10T01:50:28.615Z,99.90
2019-04-10T01:52:57.642Z,99.90
2019-04-10T01:55:29.871Z,99.90
2019-04-10T01:57:58.871Z,99.90
2019-04-10T02:00:28.397Z,99.90
2019-04-10T02:02:57.942Z,99.90
2019-04-10T02:05:39.194Z,99.90
2019-04-10T02:08:11.380Z,99.90
2019-04-10T02:10:38.504Z,99.90
2019-04-10T02:13:07.439Z,99.90
2019-04-10T02:15:36.401Z,99.90
2019-04-10T02:18:05.702Z,99.90
2019-04-10T02:20:34.738Z,99.90
2019-04-10T02:23:03.822Z,99.90
2019-04-10T02:25:33.314Z,99.90
2019-04-10T02:28:02.790Z,99.90
2019-04-10T02:30:32.617Z,99.90
2019-04-10T02:33:02.452Z,99.90
2019-04-10T02:35:31.857Z,99.90
2019-04-10T02:38:19.879Z,99.90
2019-04-10T02:40:31.128Z,99.90
2019-04-10T02:43:02.759Z,99.90
2019-04-10T02:45:32.577Z,99.90
2019-04-10T02:48:02.146Z,99.90
2019-04-10T02:50:33.215Z,99.90
2019-04-10T02:53:03.451Z,99.90
2019-04-10T02:55:33.370Z,99.90
2019-04-10T02:58:02.728Z,99.90
2019-04-10T03:00:31.586Z,99.90
2019-04-10T03:03:01.393Z,99.90
2019-04-10T03:05:30.605Z,99.90
2019-04-10T03:08:01.077Z,99.90
2019-04-10T03:10:38.920Z,99.90
2019-04-10T03:13:00.873Z,99.90
2019-04-10T03:15:31.342Z,99.90
2019-04-10T03:18:00.777Z,99.90
2019-04-10T03:20:30.088Z,99.90
2019-04-10T03:22:58.981Z,99.90
2019-04-10T03:25:28.766Z,99.90
2019-04-10T03:27:58.669Z,99.90
2019-04-10T03:30:29.484Z,99.90
2019-04-10T03:33:19.027Z,99.90
2019-04-10T03:35:49.561Z,99.90
2019-04-10T03:38:18.666Z,99.90
2019-04-10T03:40:48.029Z,99.90
2019-04-10T03:43:17.412Z,99.90
2019-04-10T03:45:47.306Z,99.90
2019-04-10T03:48:16.070Z,99.90
2019-04-10T03:50:44.909Z,99.90
2019-04-10T03:53:14.016Z,99.90
2019-04-10T03:55:43.279Z,99.90
2019-04-10T03:58:13.403Z,99.90
2019-04-10T04:00:42.758Z,99.90
2019-04-10T04:03:12.670Z,99.90
2019-04-10T04:05:42.551Z,99.90
2019-04-10T04:08:11.464Z,99.90
2019-04-10T04:10:40.450Z,99.90
2019-04-10T04:13:09.464Z,99.90
2019-04-10T04:15:38.213Z,99.90
2019-04-10T04:18:06.985Z,99.90
2019-04-10T04:20:41.343Z,99.90
2019-04-10T04:23:10.168Z,99.90
2019-04-10T04:25:38.926Z,99.90
2019-04-10T04:28:08.757Z,99.90
2019-04-10T04:30:38.957Z,99.90
2019-04-10T04:33:08.811Z,99.90
2019-04-10T04:35:38.732Z,99.90
2019-04-10T04:38:07.763Z,99.90
2019-04-10T04:40:37.664Z,99.90
2019-04-10T04:43:18.998Z,99.90
2019-04-10T04:45:48.377Z,99.90
2019-04-10T04:48:17.469Z,99.90
2019-04-10T04:50:46.245Z,99.90
2019-04-10T04:53:15.013Z,99.90
2019-04-10T04:55:44.917Z,99.90
2019-04-10T04:58:13.931Z,99.90
2019-04-10T05:00:43.498Z,99.90
2019-04-10T05:03:12.248Z,99.90
2019-04-10T05:05:41.196Z,99.90
2019-04-10T05:08:10.070Z,99.90
2019-04-10T05:10:39.856Z,99.90
2019-04-10T05:13:08.720Z,99.90
2019-04-10T05:15:37.506Z,99.90
2019-04-10T05:18:06.371Z,99.90
2019-04-10T05:20:44.134Z,99.90
2019-04-10T05:23:06.191Z,99.90
2019-04-10T05:25:36.188Z,99.90
2019-04-10T05:28:05.858Z,99.90
2019-04-10T05:30:35.690Z,99.90
2019-04-10T05:33:06.189Z,99.90
2019-04-10T05:35:35.118Z,99.90
2019-04-10T05:38:04.525Z,99.90
2019-04-10T05:40:34.611Z,99.90
2019-04-10T05:43:03.791Z,99.90
2019-04-10T05:45:32.608Z,99.90
2019-04-10T05:48:03.304Z,99.90
2019-04-10T05:50:32.273Z,99.90
2019-04-10T05:53:02.003Z,99.90
2019-04-10T05:55:37.179Z,99.90
2019-04-10T05:58:07.106Z,99.90
2019-04-10T06:00:36.709Z,99.90
2019-04-10T06:03:06.187Z,99.90
2019-04-10T06:05:35.476Z,99.90
2019-04-10T06:08:04.382Z,99.90
2019-04-10T06:10:34.275Z,99.90
2019-04-10T06:13:03.090Z,99.90
2019-04-10T06:15:31.857Z,99.90
2019-04-10T06:18:00.654Z,99.90
2019-04-10T06:20:29.443Z,99.90
2019-04-10T06:22:59.127Z,99.90
2019-04-10T06:25:28.726Z,99.90
2019-04-10T06:27:58.972Z,99.90
2019-04-10T06:30:28.114Z,99.90
2019-04-10T06:32:58.370Z,99.90
2019-04-10T06:35:28.185Z,99.90
2019-04-10T06:37:57.042Z,99.90
2019-04-10T06:40:27.425Z,99.90
2019-04-10T06:42:57.683Z,99.90
2019-04-10T06:45:27.941Z,99.90
2019-04-10T06:47:56.939Z,99.90
2019-04-10T06:50:26.553Z,99.90
2019-04-10T06:52:55.558Z,99.90
2019-04-10T06:55:24.303Z,99.90
2019-04-10T06:57:57.330Z,99.90
2019-04-10T07:00:23.654Z,99.90
2019-04-10T07:02:52.666Z,99.90
2019-04-10T07:05:21.962Z,99.90
2019-04-10T07:07:55.688Z,99.90
2019-04-10T07:10:28.148Z,99.90
2019-04-10T07:12:51.849Z,99.90
2019-04-10T07:15:23.807Z,99.90
2019-04-10T07:17:51.338Z,99.90
2019-04-10T07:20:21.380Z,99.90
2019-04-10T07:22:51.385Z,99.90
2019-04-10T07:25:20.639Z,99.90
2019-04-10T07:27:50.416Z,99.90
2019-04-10T07:30:24.118Z,99.90
2019-04-10T07:32:50.845Z,99.90
2019-04-10T07:35:21.754Z,99.90
2019-04-10T07:37:54.344Z,99.90
2019-04-10T07:40:22.795Z,99.90
2019-04-10T07:42:52.515Z,99.90
2019-04-10T07:45:26.397Z,99.90
2019-04-10T07:47:52.121Z,99.90
2019-04-10T07:50:20.903Z,99.90
2019-04-10T07:52:50.007Z,99.90
2019-04-10T07:55:19.103Z,99.90
2019-04-10T07:57:49.269Z,99.90
2019-04-10T08:00:18.389Z,99.90
2019-04-10T08:02:47.150Z,99.90
2019-04-10T08:05:16.641Z,99.90
2019-04-10T08:07:45.572Z,99.90
2019-04-10T08:10:15.738Z,99.90
2019-04-10T08:12:49.118Z,99.90
2019-04-10T08:15:15.355Z,99.90
2019-04-10T08:17:44.458Z,99.90
2019-04-10T08:20:14.117Z,99.90
2019-04-10T08:22:42.870Z,99.90
2019-04-10T08:25:11.808Z,99.90
2019-04-10T08:27:41.688Z,99.90
2019-04-10T08:30:11.245Z,99.90
2019-04-10T08:32:51.429Z,99.90
2019-04-10T08:35:11.248Z,99.90
2019-04-10T08:37:41.369Z,99.90
2019-04-10T08:40:11.558Z,99.90
2019-04-10T08:42:44.521Z,99.90
2019-04-10T08:45:11.534Z,99.90
2019-04-10T08:47:40.325Z,99.90
2019-04-10T08:50:09.827Z,99.90
2019-04-10T08:52:39.103Z,99.90
2019-04-10T08:55:08.346Z,99.70
2019-04-10T08:57:38.175Z,99.90
2019-04-10T09:00:08.148Z,99.90
2019-04-10T09:02:38.129Z,99.90
2019-04-10T09:05:09.065Z,99.90
2019-04-10T09:07:38.323Z,99.90
2019-04-10T09:10:08.847Z,99.90
2019-04-10T09:12:37.598Z,98.80
2019-04-10T09:15:07.875Z,99.90
2019-04-10T09:17:37.698Z,99.30
2019-04-10T09:20:07.312Z,99.90
2019-04-10T09:22:55.171Z,99.90
2019-04-10T09:25:06.981Z,99.90
2019-04-10T09:27:36.002Z,99.10
2019-04-10T09:30:06.719Z,98.70
2019-04-10T09:32:36.793Z,99.30
2019-04-10T09:35:06.622Z,99.00
2019-04-10T09:37:35.487Z,99.90
2019-04-10T09:40:05.623Z,99.30
2019-04-10T09:42:35.437Z,99.30
2019-04-10T09:45:05.133Z,99.90
2019-04-10T09:47:34.791Z,98.20
2019-04-10T09:50:05.387Z,98.60
2019-04-10T09:52:35.669Z,99.60
2019-04-10T09:55:05.727Z,98.80
2019-04-10T09:57:36.607Z,98.20
2019-04-10T10:00:07.423Z,98.40
2019-04-10T10:02:36.367Z,99.10
2019-04-10T10:05:06.313Z,99.50
2019-04-10T10:07:35.167Z,98.80
2019-04-10T10:10:06.460Z,97.70
2019-04-10T10:12:36.452Z,97.60
2019-04-10T10:15:07.216Z,98.90
2019-04-10T10:17:37.061Z,97.30
2019-04-10T10:20:08.236Z,97.70
2019-04-10T10:22:37.129Z,99.60
2019-04-10T10:25:07.037Z,98.50
2019-04-10T10:27:36.454Z,97.80
2019-04-10T10:30:07.132Z,98.30
2019-04-10T10:32:37.186Z,98.00
2019-04-10T10:35:07.171Z,95.80
2019-04-10T10:37:36.641Z,95.80
2019-04-10T10:40:08.345Z,91.60
2019-04-10T10:42:39.575Z,93.70
2019-04-10T10:45:10.276Z,93.20
2019-04-10T10:47:40.447Z,94.10
2019-04-10T10:50:10.572Z,91.90
2019-04-10T10:52:39.757Z,86.40
2019-04-10T10:55:09.751Z,89.70
2019-04-10T10:57:39.652Z,89.70
2019-04-10T11:00:12.802Z,82.80
2019-04-10T11:02:40.094Z,81.80
2019-04-10T11:05:08.942Z,78.20
2019-04-10T11:07:38.880Z,82.20
2019-04-10T11:10:08.744Z,82.90
2019-04-10T11:12:38.482Z,83.10
2019-04-10T11:15:07.846Z,74.20
2019-04-10T11:17:38.254Z,77.90
2019-04-10T11:20:10.128Z,77.90
2019-04-10T11:22:39.745Z,77.40
2019-04-10T11:25:09.193Z,75.10
2019-04-10T11:27:39.200Z,74.90
2019-04-10T11:30:10.039Z,74.50
2019-04-10T11:32:39.166Z,78.70
2019-04-10T11:35:08.894Z,76.70
2019-04-10T11:37:44.414Z,79.30
2019-04-10T11:40:09.264Z,78.50
2019-04-10T11:42:40.063Z,78.60
2019-04-10T11:45:10.715Z,80.30
2019-04-10T11:47:39.944Z,78.50
2019-04-10T11:50:13.495Z,75.30
2019-04-10T11:52:46.626Z,72.60
2019-04-10T11:57:45.933Z,70.00
2019-04-10T12:00:18.848Z,71.40
2019-04-10T12:02:47.404Z,79.00
2019-04-10T12:05:19.890Z,84.60
2019-04-10T12:08:09.568Z,85.80
2019-04-10T12:12:48.135Z,89.30
2019-04-10T12:15:17.585Z,89.50
2019-04-10T12:17:47.293Z,90.60
2019-04-10T12:20:16.741Z,91.40
2019-04-10T12:22:46.217Z,88.20
2019-04-10T12:25:15.645Z,89.20
2019-04-10T12:27:47.334Z,89.50
2019-04-10T12:30:17.415Z,86.10
2019-04-10T12:32:47.479Z,83.50
2019-04-10T12:35:17.217Z,81.20
2019-04-10T12:37:46.140Z,83.50
2019-04-10T12:40:15.252Z,80.30
2019-04-10T12:42:44.201Z,84.40
2019-04-10T12:45:13.831Z,82.30
2019-04-10T12:47:42.903Z,78.70
2019-04-10T12:50:12.653Z,80.20
2019-04-10T12:52:41.406Z,80.20
2019-04-10T12:55:12.315Z,83.40
2019-04-10T12:57:41.376Z,79.90
2019-04-10T13:00:14.156Z,81.10
2019-04-10T13:02:42.911Z,81.40
2019-04-10T13:05:11.813Z,81.20
2019-04-10T13:07:40.751Z,79.70
2019-04-10T13:10:10.730Z,77.00
2019-04-10T13:12:39.765Z,71.50
2019-04-10T13:15:10.925Z,63.30
2019-04-10T13:17:40.768Z,58.60
2019-04-10T13:20:11.708Z,58.00
2019-04-10T13:22:40.670Z,62.30
2019-04-10T13:25:10.271Z,50.80
2019-04-10T13:27:39.554Z,54.20
2019-04-10T13:30:12.878Z,55.50
2019-04-10T13:32:40.944Z,55.80
2019-04-10T13:35:10.398Z,53.80
2019-04-10T13:37:39.342Z,56.50
2019-04-10T13:40:08.691Z,56.40
2019-04-10T13:42:37.524Z,55.90
2019-04-10T13:45:07.980Z,54.30
2019-04-10T13:47:37.043Z,56.40
2019-04-10T13:50:06.757Z,57.60
2019-04-10T13:52:38.412Z,55.00
2019-04-10T13:55:10.089Z,53.20
2019-04-10T13:57:39.255Z,54.10
2019-04-10T14:02:37.603Z,56.70
2019-04-10T14:05:10.237Z,54.90
2019-04-10T14:07:40.091Z,57.60
2019-04-10T14:10:10.848Z,56.50
2019-04-10T14:12:40.783Z,56.10
2019-04-10T14:15:09.857Z,57.20
2019-04-10T14:17:38.785Z,56.60
2019-04-10T14:20:08.121Z,56.50
2019-04-10T14:22:40.420Z,54.70
2019-04-10T14:25:20.302Z,57.00
2019-04-10T14:27:49.205Z,59.00
2019-04-10T14:30:25.485Z,57.90
2019-04-10T14:32:55.226Z,57.20
2019-04-10T14:35:25.252Z,56.80
2019-04-10T14:37:54.650Z,58.60
2019-04-10T14:40:24.158Z,58.30
2019-04-10T14:42:53.583Z,57.60
2019-04-10T14:45:23.578Z,56.70
2019-04-10T14:47:53.913Z,57.80
2019-04-10T14:50:23.966Z,59.60
2019-04-10T14:52:53.772Z,59.40
2019-04-10T14:55:24.064Z,59.40
2019-04-10T14:57:53.346Z,59.30
2019-04-10T15:00:39.354Z,58.50
2019-04-10T15:03:08.568Z,59.40
2019-04-10T15:05:45.526Z,61.30
2019-04-10T15:08:09.239Z,61.20
2019-04-10T15:10:38.208Z,62.10
2019-04-10T15:13:13.699Z,60.40
2019-04-10T15:15:50.380Z,61.60
2019-04-10T15:18:20.375Z,61.40
2019-04-10T15:20:49.428Z,59.70
2019-04-10T15:23:18.778Z,58.40
2019-04-10T15:25:47.560Z,59.00
2019-04-10T15:28:16.357Z,60.10
2019-04-10T15:30:45.118Z,58.40
2019-04-10T15:33:14.462Z,55.90
2019-04-10T15:35:43.340Z,57.60
2019-04-10T15:38:12.378Z,58.80
2019-04-10T15:40:42.097Z,58.10
2019-04-10T15:43:11.033Z,59.80
2019-04-10T15:45:40.028Z,59.30
2019-04-10T15:48:08.918Z,57.10
2019-04-10T15:50:39.378Z,56.10
2019-04-10T15:53:09.655Z,56.10
2019-04-10T15:55:38.686Z,56.50
2019-04-10T15:58:08.652Z,56.60
2019-04-10T16:00:38.232Z,59.00
2019-04-10T16:03:07.471Z,58.10
2019-04-10T16:05:37.594Z,60.00
2019-04-10T16:08:06.644Z,59.60
2019-04-10T16:10:53.367Z,61.30
2019-04-10T16:13:28.258Z,60.20
2019-04-10T16:16:01.004Z,60.40
2019-04-10T16:18:30.517Z,58.70
2019-04-10T16:20:59.991Z,61.60
2019-04-10T16:23:39.998Z,61.40
2019-04-10T16:26:11.081Z,60.30
2019-04-10T16:28:40.125Z,58.10
2019-04-10T16:31:09.133Z,57.30
2019-04-10T16:33:39.087Z,57.80
2019-04-10T16:36:08.542Z,58.40
2019-04-10T16:38:38.277Z,55.60
2019-04-10T16:41:08.228Z,56.50
2019-04-10T16:43:38.274Z,54.10
2019-04-10T16:46:07.325Z,56.20
2019-04-10T16:48:36.090Z,56.70
2019-04-10T16:51:04.907Z,58.20
2019-04-10T16:53:34.155Z,58.20
2019-04-10T16:56:03.407Z,57.40
2019-04-10T16:58:32.189Z,52.70
2019-04-10T17:01:02.037Z,54.30
2019-04-10T17:03:31.176Z,54.20
2019-04-10T17:05:59.962Z,56.00
2019-04-10T17:08:29.858Z,57.10
2019-04-10T17:10:59.186Z,57.10
2019-04-10T17:13:30.698Z,57.00
2019-04-10T17:15:59.694Z,56.60
2019-04-10T17:18:28.500Z,56.60
2019-04-10T17:20:57.342Z,55.50
2019-04-10T17:23:26.840Z,54.30
2019-04-10T17:25:55.885Z,54.00
2019-04-10T17:28:25.410Z,55.00
2019-04-10T17:30:55.323Z,56.80
2019-04-10T17:33:25.528Z,58.00
2019-04-10T17:35:56.007Z,57.00
2019-04-10T17:38:24.845Z,59.10
2019-04-10T17:40:56.917Z,59.00
2019-04-10T17:43:25.377Z,59.60
2019-04-10T17:45:55.132Z,59.20
2019-04-10T17:48:25.651Z,59.90
2019-04-10T17:50:55.321Z,61.30
2019-04-10T17:53:25.187Z,62.00
2019-04-10T17:55:54.251Z,63.00
2019-04-10T17:58:23.406Z,62.90
2019-04-10T18:00:54.065Z,63.70
2019-04-10T18:03:23.433Z,64.40
2019-04-10T18:05:53.072Z,64.70
2019-04-10T18:08:24.213Z,65.70
2019-04-10T18:10:56.809Z,67.60
2019-04-10T18:13:26.896Z,68.00
2019-04-10T18:18:24.387Z,71.20
2019-04-10T18:20:53.983Z,72.90
2019-04-10T18:23:23.043Z,72.20
2019-04-10T18:25:52.447Z,71.00
2019-04-10T18:28:21.397Z,72.20
2019-04-10T18:30:50.494Z,75.50
2019-04-10T18:33:20.331Z,75.70
2019-04-10T18:35:49.574Z,78.60
2019-04-10T18:38:19.455Z,78.80
2019-04-10T18:40:58.276Z,79.60
2019-04-10T18:43:20.277Z,82.50
2019-04-10T18:46:03.009Z,83.60
2019-04-10T18:48:20.791Z,83.30
2019-04-10T18:50:49.855Z,85.50
2019-04-10T18:53:19.297Z,85.30
2019-04-10T18:55:48.934Z,85.30
2019-04-10T18:58:21.179Z,85.10
2019-04-10T19:01:28.497Z,85.50
2019-04-10T19:04:16.259Z,87.80
2019-04-10T19:06:58.687Z,88.70
2019-04-10T19:09:47.370Z,90.20
2019-04-10T19:12:16.745Z,90.90
2019-04-10T19:14:46.684Z,91.30
2019-04-10T19:17:19.025Z,91.70
2019-04-10T19:19:48.557Z,92.10
2019-04-10T19:22:18.542Z,92.20
2019-04-10T19:24:47.318Z,92.20
2019-04-10T19:27:16.195Z,92.30
2019-04-10T19:29:45.014Z,92.30
2019-04-10T19:32:22.622Z,93.00
2019-04-10T19:34:51.823Z,93.00
2019-04-10T19:37:20.849Z,93.30
2019-04-10T19:42:17.680Z,93.30
2019-04-10T19:44:47.554Z,93.50
2019-04-10T19:47:17.912Z,93.90
2019-04-10T19:49:47.005Z,93.70
2019-04-10T19:52:15.998Z,94.20
2019-04-10T19:54:45.053Z,94.10
2019-04-10T19:57:15.187Z,94.60
2019-04-10T19:59:44.133Z,94.40
2019-04-10T20:02:12.999Z,93.90
2019-04-10T20:04:42.917Z,94.50
2019-04-10T20:07:12.907Z,93.90
2019-04-10T20:09:42.197Z,94.30
2019-04-10T20:12:10.974Z,94.50
2019-04-10T20:14:40.807Z,94.10
2019-04-10T20:17:09.872Z,93.30
2019-04-10T20:19:38.631Z,93.70
2019-04-10T20:22:08.460Z,92.80
2019-04-10T20:24:37.409Z,92.60
2019-04-10T20:27:06.179Z,92.60
2019-04-10T20:29:35.068Z,92.40
2019-04-10T20:32:04.155Z,92.00
2019-04-10T20:34:33.679Z,91.90
2019-04-10T20:37:06.651Z,91.50
2019-04-10T20:39:33.639Z,91.10
2019-04-10T20:42:02.764Z,90.80
2019-04-10T20:44:32.593Z,90.70
2019-04-10T20:47:02.523Z,90.80
2019-04-10T20:49:34.250Z,91.30
2019-04-10T20:52:04.188Z,91.00
2019-04-10T20:54:35.042Z,90.80
2019-04-10T20:57:04.953Z,91.30
2019-04-10T20:59:34.963Z,90.90
2019-04-10T21:02:04.220Z,90.80
2019-04-10T21:04:33.821Z,90.60
2019-04-10T21:07:02.963Z,90.50
2019-04-10T21:09:32.132Z,91.30
2019-04-10T21:12:08.057Z,90.70
2019-04-10T21:14:31.845Z,90.50
2019-04-10T21:17:00.898Z,90.30
2019-04-10T21:19:29.651Z,90.40
2019-04-10T21:22:01.417Z,90.00
2019-04-10T21:24:31.558Z,90.40
2019-04-10T21:27:03.653Z,90.10
2019-04-10T21:29:50.550Z,89.90
2019-04-10T21:32:35.877Z,90.20
2019-04-10T21:35:07.651Z,90.30
2019-04-10T21:37:36.817Z,90.10
2019-04-10T21:40:06.050Z,90.10
2019-04-10T21:42:35.080Z,90.00
2019-04-10T21:45:05.259Z,90.00
2019-04-10T21:47:34.031Z,89.50
2019-04-10T21:50:02.805Z,90.40
2019-04-10T21:52:32.470Z,90.40
2019-04-10T21:55:02.468Z,90.10
2019-04-10T21:57:32.014Z,90.00
2019-04-10T22:00:01.615Z,90.10
2019-04-10T22:02:31.573Z,90.10
2019-04-10T22:05:00.579Z,90.00
2019-04-10T22:07:52.353Z,90.10
2019-04-10T22:10:32.192Z,89.70
2019-04-10T22:13:01.565Z,90.30
2019-04-10T22:15:37.327Z,90.30
2019-04-10T22:18:07.321Z,90.50
2019-04-10T22:20:36.370Z,90.50
2019-04-10T22:23:05.192Z,90.80
2019-04-10T22:25:35.220Z,90.50
2019-04-10T22:28:04.578Z,90.60
2019-04-10T22:30:33.423Z,90.60
2019-04-10T22:33:03.216Z,90.80
2019-04-10T22:35:32.110Z,91.00
2019-04-10T22:38:02.619Z,91.20
2019-04-10T22:40:31.587Z,91.60
2019-04-10T22:43:00.342Z,91.70
2019-04-10T22:45:31.257Z,91.80
2019-04-10T22:48:00.818Z,91.80
2019-04-10T22:50:30.946Z,92.10
2019-04-10T22:53:01.407Z,92.50
2019-04-10T22:55:31.789Z,91.60
2019-04-10T22:58:00.854Z,92.00
2019-04-10T23:00:32.880Z,91.90
2019-04-10T23:03:03.186Z,91.80
2019-04-10T23:05:32.447Z,92.00
2019-04-10T23:08:01.319Z,92.00
2019-04-10T23:10:30.205Z,92.60
2019-04-10T23:13:04.074Z,92.30
2019-04-10T23:15:31.321Z,92.20
2019-04-10T23:18:01.276Z,91.90
2019-04-10T23:20:30.219Z,91.90
2019-04-10T23:22:59.050Z,92.00
2019-04-10T23:25:28.727Z,92.10
2019-04-10T23:27:58.898Z,91.70
2019-04-10T23:30:28.734Z,92.00
2019-04-10T23:32:57.825Z,91.90
2019-04-10T23:35:27.616Z,92.20
2019-04-10T23:37:57.395Z,91.80
2019-04-10T23:40:27.173Z,91.60
2019-04-10T23:43:07.816Z,92.00
2019-04-10T23:45:27.067Z,92.10
2019-04-10T23:47:58.155Z,91.60
2019-04-10T23:50:27.169Z,91.70
2019-04-10T23:52:56.178Z,91.40
2019-04-10T23:55:26.137Z,91.90
2019-04-10T23:57:55.901Z,92.10
